Time;durP1;ratioP1;P1;durP2;ratioP2;P2;SDS_P1;SDS_P2;PMS_P1;PMS_P2;Temp;Humidity;BMP_temperature;BMP_pressure;BME280_temperature;BME280_humidity;BME280_pressure;Samples;Min_cycle;Max_cycle;Signal;HPM_P1;HPM_P2
2021/06/11 09:36:32;;;;;;;24.58;17.90;;;;;;;;;;6236947;22;20054;-88
2021/06/11 09:38:59;;;;;;;18.92;16.92;;;;;;;;;;6222307;23;20008;-89
2021/06/11 09:41:24;;;;;;;18.98;17.17;;;;;;;;;;6221316;22;20074;-89
2021/06/11 09:46:47;;;;;;;26.60;19.40;;;;;;;;;;6238166;23;20395;-89
2021/06/11 09:49:16;;;;;;;19.98;17.98;;;;;;;;;;6247441;22;20003;-89
2021/06/11 09:51:42;;;;;;;21.88;19.60;;;;;;;;;;6245745;23;20008;-89
2021/06/11 09:54:27;;;;;;;18.70;17.00;;;;;;;;;;6245406;23;20493;-91
2021/06/11 09:56:54;;;;;;;18.23;16.50;;;;;;;;;;6244826;23;20334;-91
2021/06/11 09:59:40;;;;;;;16.90;14.10;;;;;;;;;;6246487;22;19996;-91
2021/06/11 10:02:17;;;;;;;19.63;17.25;;;;;;;;;;6244501;23;20012;-90
2021/06/11 10:04:44;;;;;;;19.83;17.73;;;;;;;;;;6244593;23;20010;-93
2021/06/11 10:07:27;;;;;;;19.60;17.73;;;;;;;;;;6162140;23;20020;-93
2021/06/11 10:09:53;;;;;;;18.38;16.30;;;;;;;;;;6157294;23;20347;-91
2021/06/11 10:12:19;;;;;;;17.30;15.50;;;;;;;;;;6182442;23;20039;-92
2021/06/11 10:14:45;;;;;;;17.45;15.75;;;;;;;;;;6158256;23;20036;-92
2021/06/11 10:17:10;;;;;;;15.95;14.02;;;;;;;;;;6183059;23;20001;-93
2021/06/11 10:19:37;;;;;;;16.20;14.55;;;;;;;;;;6156489;23;20005;-92
2021/06/11 10:22:05;;;;;;;15.00;13.50;;;;;;;;;;6157891;23;20055;-92
2021/06/11 10:24:31;;;;;;;14.73;13.40;;;;;;;;;;6180207;23;20431;-92
2021/06/11 10:26:57;;;;;;;14.30;12.90;;;;;;;;;;6182440;23;20091;-92
2021/06/11 10:29:23;;;;;;;14.15;12.75;;;;;;;;;;6157240;23;20000;-91
2021/06/11 10:31:49;;;;;;;15.10;12.45;;;;;;;;;;6158326;23;20035;-92
2021/06/11 10:34:14;;;;;;;13.27;11.88;;;;;;;;;;6157417;23;20422;-91
2021/06/11 10:36:44;;;;;;;13.32;12.00;;;;;;;;;;6182794;23;19998;-91
2021/06/11 10:39:10;;;;;;;13.37;11.97;;;;;;;;;;6182291;23;20000;-92
2021/06/11 10:41:56;;;;;;;13.27;10.55;;;;;;;;;;6158345;23;20295;-93
2021/06/11 10:44:38;;;;;;;11.50;10.18;;;;;;;;;;6193547;23;20058;-93
2021/06/11 10:47:18;;;;;;;13.65;12.35;;;;;;;;;;6242043;23;20035;-92
2021/06/11 10:49:59;;;;;;;12.00;10.90;;;;;;;;;;6242352;23;20047;-91
2021/06/11 10:52:39;;;;;;;11.13;9.77;;;;;;;;;;6243515;22;20000;-91
2021/06/11 10:55:14;;;;;;;13.55;10.65;;;;;;;;;;6242546;23;20043;-92
2021/06/11 10:57:40;;;;;;;14.05;12.73;;;;;;;;;;6238259;23;20497;-89
2021/06/11 11:00:46;;;;;;;17.00;15.20;;;;;;;;;;6242087;23;20400;-91
2021/06/11 11:03:33;;;;;;;15.75;14.15;;;;;;;;;;6243034;22;20000;-91
2021/06/11 11:06:19;;;;;;;17.05;14.77;;;;;;;;;;6243371;22;20058;-93
2021/06/11 11:08:52;;;;;;;15.32;13.90;;;;;;;;;;6241073;23;20652;-93
2021/06/11 11:11:33;;;;;;;13.10;11.80;;;;;;;;;;6241911;23;20054;-93
2021/06/11 11:13:58;;;;;;;12.10;11.00;;;;;;;;;;6243560;22;20597;-95
2021/06/11 11:16:35;;;;;;;12.82;11.63;;;;;;;;;;6242954;23;20028;-92
2021/06/11 11:19:06;;;;;;;14.35;12.88;;;;;;;;;;6243921;22;20000;-91
2021/06/11 11:21:34;;;;;;;16.15;14.50;;;;;;;;;;6242719;23;20493;-91
2021/06/11 11:24:12;;;;;;;18.35;15.35;;;;;;;;;;6245071;22;20020;-91
2021/06/11 11:26:48;;;;;;;18.35;15.32;;;;;;;;;;6243794;23;20008;-91
2021/06/11 11:29:16;;;;;;;16.00;14.50;;;;;;;;;;6243679;23;20000;-91
2021/06/11 11:31:56;;;;;;;16.85;15.15;;;;;;;;;;6242267;23;20010;-91
2021/06/11 11:34:22;;;;;;;;;;;;;;;;;;6242317;23;20119;-92
2021/06/11 11:36:51;;;;;;;16.95;15.25;;;;;;;;;;6241700;23;20334;-91
2021/06/11 11:39:16;;;;;;;14.50;13.00;;;;;;;;;;6242528;23;20000;-92
2021/06/11 11:41:43;;;;;;;12.57;10.43;;;;;;;;;;6242219;22;20015;-90
2021/06/11 11:44:09;;;;;;;11.75;10.57;;;;;;;;;;6242944;23;20004;-92
2021/06/11 11:46:35;;;;;;;10.82;9.82;;;;;;;;;;6242634;23;20600;-91
2021/06/11 11:49:00;;;;;;;10.65;9.60;;;;;;;;;;6242493;23;20008;-91
2021/06/11 11:51:25;;;;;;;8.88;7.93;;;;;;;;;;6243986;22;20000;-89
2021/06/11 11:53:51;;;;;;;10.18;7.40;;;;;;;;;;6242774;23;20007;-91
2021/06/11 11:56:16;;;;;;;7.90;7.18;;;;;;;;;;6244182;22;20046;-91
2021/06/11 11:58:42;;;;;;;8.15;7.32;;;;;;;;;;6243399;22;20053;-91
2021/06/11 12:01:07;;;;;;;9.50;8.10;;;;;;;;;;6240844;23;20224;-89
2021/06/11 12:03:35;;;;;;;8.05;7.25;;;;;;;;;;6241802;23;20004;-91
2021/06/11 12:06:01;;;;;;;9.23;6.53;;;;;;;;;;6240817;23;20004;-91
2021/06/11 12:08:26;;;;;;;8.85;6.30;;;;;;;;;;6242400;23;20514;-91
2021/06/11 12:10:52;;;;;;;6.80;6.10;;;;;;;;;;6242414;23;20000;-91
2021/06/11 12:13:17;;;;;;;6.70;6.10;;;;;;;;;;6244351;22;20000;-91
2021/06/11 12:15:43;;;;;;;6.82;6.05;;;;;;;;;;6244025;23;20067;-91
2021/06/11 12:18:09;;;;;;;6.95;6.20;;;;;;;;;;6242573;23;20438;-91
2021/06/11 12:20:35;;;;;;;6.95;6.03;;;;;;;;;;6241910;23;20438;-91
2021/06/11 12:23:02;;;;;;;7.55;5.75;;;;;;;;;;6242405;23;20007;-90
2021/06/11 12:25:28;;;;;;;6.65;5.93;;;;;;;;;;6242441;23;20004;-91
2021/06/11 12:27:54;;;;;;;6.57;5.88;;;;;;;;;;6243957;22;19996;-90
2021/06/11 12:30:20;;;;;;;7.57;5.93;;;;;;;;;;6243561;22;20004;-90
2021/06/11 12:32:45;;;;;;;7.55;6.03;;;;;;;;;;6244163;22;20446;-92
2021/06/11 12:35:11;;;;;;;7.30;6.55;;;;;;;;;;6242334;23;20007;-91
2021/06/11 12:37:37;;;;;;;6.80;6.00;;;;;;;;;;6242210;23;20278;-90
2021/06/11 12:40:04;;;;;;;6.03;5.13;;;;;;;;;;6242098;23;20449;-91
2021/06/11 12:42:37;;;;;;;6.57;5.97;;;;;;;;;;6242362;22;20004;-91
2021/06/11 12:45:04;;;;;;;6.50;5.00;;;;;;;;;;6241900;23;20000;-89
2021/06/11 12:47:29;;;;;;;5.38;4.88;;;;;;;;;;6242729;23;20004;-90
2021/06/11 12:49:55;;;;;;;8.80;5.60;;;;;;;;;;6242167;23;20039;-91
2021/06/11 12:52:20;;;;;;;7.82;5.53;;;;;;;;;;6241971;23;20383;-91
2021/06/11 12:54:47;;;;;;;5.93;5.10;;;;;;;;;;6241281;23;20086;-91
2021/06/11 12:57:16;;;;;;;5.82;5.28;;;;;;;;;;6242799;23;19996;-89
2021/06/11 12:59:44;;;;;;;6.10;5.53;;;;;;;;;;6242218;23;20015;-89
2021/06/11 13:02:14;;;;;;;9.38;5.75;;;;;;;;;;6242471;23;19996;-91
2021/06/11 13:04:39;;;;;;;6.50;5.70;;;;;;;;;;6243567;23;20007;-90
2021/06/11 13:07:05;;;;;;;5.75;5.25;;;;;;;;;;6242803;23;20092;-91
2021/06/11 13:09:31;;;;;;;5.95;5.47;;;;;;;;;;6244299;23;20030;-91
2021/06/11 13:11:58;;;;;;;6.28;5.43;;;;;;;;;;6246982;22;20000;-89
2021/06/11 13:14:23;;;;;;;7.57;5.35;;;;;;;;;;6246413;22;20071;-90
2021/06/11 13:16:49;;;;;;;7.50;6.15;;;;;;;;;;6245050;23;20086;-90
2021/06/11 13:19:14;;;;;;;6.90;6.07;;;;;;;;;;6245572;23;20004;-91
2021/06/11 13:21:40;;;;;;;8.52;5.90;;;;;;;;;;6244978;23;20322;-90
2021/06/11 13:24:07;;;;;;;8.70;6.22;;;;;;;;;;6245558;23;20082;-89
2021/06/11 13:26:34;;;;;;;6.75;5.90;;;;;;;;;;6245013;23;20088;-89
2021/06/11 13:29:00;;;;;;;6.53;6.00;;;;;;;;;;6246028;22;20000;-90
2021/06/11 13:31:26;;;;;;;6.43;5.82;;;;;;;;;;6246368;22;20778;-91
2021/06/11 13:33:51;;;;;;;6.82;6.15;;;;;;;;;;6245108;23;20075;-90
2021/06/11 13:36:17;;;;;;;6.20;5.63;;;;;;;;;;6244625;23;20077;-90
2021/06/11 13:38:43;;;;;;;7.00;6.30;;;;;;;;;;6245181;23;19996;-90
2021/06/11 13:41:09;;;;;;;6.72;5.78;;;;;;;;;;6245172;22;20026;-90
2021/06/11 13:43:34;;;;;;;6.07;5.47;;;;;;;;;;6243317;23;20000;-90
2021/06/11 13:46:00;;;;;;;7.35;5.60;;;;;;;;;;6244319;23;20012;-89
2021/06/11 13:48:25;;;;;;;6.75;5.55;;;;;;;;;;6243582;23;20066;-91
2021/06/11 13:50:51;;;;;;;7.25;5.93;;;;;;;;;;6245325;22;20000;-89
2021/06/11 13:53:17;;;;;;;6.18;5.50;;;;;;;;;;6245506;22;19996;-89
2021/06/11 13:55:42;;;;;;;6.80;6.10;;;;;;;;;;6243745;23;20008;-89
2021/06/11 13:58:08;;;;;;;6.80;5.57;;;;;;;;;;6245107;22;20054;-90
2021/06/11 14:00:34;;;;;;;6.00;5.47;;;;;;;;;;6244913;23;20000;-89
2021/06/11 14:03:00;;;;;;;8.45;5.97;;;;;;;;;;6245054;23;20000;-91
2021/06/11 14:05:27;;;;;;;7.35;5.95;;;;;;;;;;6245776;22;20018;-90
2021/06/11 14:07:54;;;;;;;6.65;5.60;;;;;;;;;;6244523;23;20001;-90
2021/06/11 14:10:20;;;;;;;6.22;5.63;;;;;;;;;;6244160;23;20137;-90
2021/06/11 14:12:46;;;;;;;6.70;6.10;;;;;;;;;;6244086;23;20004;-91
2021/06/11 14:15:12;;;;;;;6.75;5.85;;;;;;;;;;6241468;23;20077;-91
2021/06/11 14:17:39;;;;;;;6.47;5.88;;;;;;;;;;6244061;23;19996;-90
2021/06/11 14:20:06;;;;;;;6.65;6.03;;;;;;;;;;6244819;23;20004;-93
2021/06/11 14:22:33;;;;;;;7.80;6.65;;;;;;;;;;6242528;23;20027;-91
2021/06/11 14:24:59;;;;;;;8.05;6.57;;;;;;;;;;6243475;23;20027;-92
2021/06/11 14:27:25;;;;;;;6.88;6.18;;;;;;;;;;6243021;23;20004;-93
2021/06/11 14:29:51;;;;;;;11.55;6.30;;;;;;;;;;6245301;22;20445;-93
2021/06/11 14:32:17;;;;;;;7.63;6.82;;;;;;;;;;6243659;23;20007;-92
2021/06/11 14:34:42;;;;;;;7.18;6.47;;;;;;;;;;6244225;22;20000;-93
2021/06/11 14:37:08;;;;;;;8.82;6.25;;;;;;;;;;6243909;23;19996;-92
2021/06/11 14:39:33;;;;;;;7.82;6.22;;;;;;;;;;6243989;23;20046;-92
2021/06/11 14:41:59;;;;;;;6.72;6.03;;;;;;;;;;6243355;22;20031;-91
2021/06/11 14:44:28;;;;;;;7.50;5.97;;;;;;;;;;6244946;23;20000;-92
2021/06/11 14:46:54;;;;;;;7.78;6.70;;;;;;;;;;6242966;23;20020;-92
2021/06/11 14:49:19;;;;;;;6.65;5.97;;;;;;;;;;6246116;22;20049;-93
2021/06/11 14:51:45;;;;;;;7.45;6.75;;;;;;;;;;6243982;22;20015;-93
2021/06/11 14:54:10;;;;;;;7.38;6.47;;;;;;;;;;6243521;23;20003;-93
2021/06/11 14:56:41;;;;;;;7.65;6.28;;;;;;;;;;6243855;23;19996;-94
2021/06/11 14:59:07;;;;;;;7.70;6.13;;;;;;;;;;6245402;22;20003;-93
2021/06/11 15:01:35;;;;;;;6.75;6.05;;;;;;;;;;6243810;23;20004;-92
2021/06/11 15:04:01;;;;;;;6.70;6.10;;;;;;;;;;6243428;23;20035;-93
2021/06/11 15:06:27;;;;;;;9.35;6.00;;;;;;;;;;6244178;23;20004;-91
2021/06/11 15:08:52;;;;;;;8.38;6.63;;;;;;;;;;6244893;22;20003;-93
2021/06/11 15:11:18;;;;;;;6.65;6.05;;;;;;;;;;6243978;23;20083;-93
2021/06/11 15:13:44;;;;;;;7.75;6.50;;;;;;;;;;6241196;23;20011;-93
2021/06/11 15:16:09;;;;;;;9.15;6.65;;;;;;;;;;6246683;23;19992;-96
2021/06/11 15:18:36;;;;;;;7.43;6.70;;;;;;;;;;6246959;23;20337;-96
2021/06/11 15:21:02;;;;;;;8.02;6.35;;;;;;;;;;6246388;23;20004;-96
2021/06/11 15:23:29;;;;;;;7.57;6.88;;;;;;;;;;6246371;23;20022;-96
2021/06/11 15:25:55;;;;;;;7.65;6.85;;;;;;;;;;6246151;23;20054;-96
2021/06/11 15:28:20;;;;;;;8.15;6.70;;;;;;;;;;6247448;23;20057;-96
2021/06/11 15:31:30;;;;;;;9.70;6.80;;;;;;;;;;6246355;23;20031;-96
2021/06/11 15:33:56;;;;;;;6.85;6.10;;;;;;;;;;6250142;23;20002;-96
2021/06/11 15:36:21;;;;;;;7.72;6.93;;;;;;;;;;6246079;23;20000;-96
2021/06/11 15:38:46;;;;;;;8.95;7.28;;;;;;;;;;6250030;23;20004;-96
2021/06/11 15:41:12;;;;;;;9.35;6.90;;;;;;;;;;6249435;22;20421;-96
2021/06/11 15:43:37;;;;;;;8.13;7.20;;;;;;;;;;6245879;23;20338;-95
2021/06/11 15:46:04;;;;;;;8.48;6.50;;;;;;;;;;6244729;23;20071;-95
2021/06/11 15:48:30;;;;;;;7.57;6.15;;;;;;;;;;6245257;23;19996;-96
2021/06/11 15:50:56;;;;;;;7.88;6.53;;;;;;;;;;6245821;23;20038;-95
2021/06/11 15:53:23;;;;;;;11.93;7.13;;;;;;;;;;6244829;23;20004;-95
2021/06/11 15:55:49;;;;;;;7.63;6.82;;;;;;;;;;6244941;23;20369;-95
2021/06/11 15:58:17;;;;;;;9.07;7.45;;;;;;;;;;6244770;23;20010;-95
2021/06/11 16:00:49;;;;;;;8.32;6.53;;;;;;;;;;6245460;23;20000;-96
2021/06/11 16:03:15;;;;;;;9.00;6.68;;;;;;;;;;6244725;23;20342;-95
2021/06/11 16:05:40;;;;;;;6.55;5.95;;;;;;;;;;6244957;23;20004;-95
2021/06/11 16:08:06;;;;;;;8.40;7.00;;;;;;;;;;6244520;23;20008;-95
2021/06/11 16:10:31;;;;;;;12.20;7.72;;;;;;;;;;6245031;23;20430;-95
2021/06/11 16:12:57;;;;;;;8.43;7.22;;;;;;;;;;6244495;23;20000;-94
2021/06/11 16:15:23;;;;;;;9.27;6.85;;;;;;;;;;6244118;23;20083;-94
2021/06/11 16:17:49;;;;;;;13.25;7.25;;;;;;;;;;6244930;23;20053;-95
2021/06/11 16:20:15;;;;;;;8.93;7.30;;;;;;;;;;6244732;23;20401;-95
2021/06/11 16:22:41;;;;;;;9.02;6.78;;;;;;;;;;6244441;23;20023;-94
2021/06/11 16:25:08;;;;;;;8.57;6.38;;;;;;;;;;6244962;23;20079;-94
2021/06/11 16:27:37;;;;;;;6.85;6.18;;;;;;;;;;6244306;23;20008;-94
2021/06/11 16:30:04;;;;;;;8.98;6.38;;;;;;;;;;6244473;23;20338;-95
2021/06/11 16:32:30;;;;;;;8.57;6.28;;;;;;;;;;6243720;23;19996;-95
2021/06/11 16:34:56;;;;;;;6.97;6.18;;;;;;;;;;6244743;23;20008;-95
2021/06/11 16:37:21;;;;;;;7.28;6.13;;;;;;;;;;6243664;23;20037;-93
2021/06/11 16:39:48;;;;;;;9.55;5.80;;;;;;;;;;6244700;23;20015;-94
2021/06/11 16:42:14;;;;;;;8.70;5.72;;;;;;;;;;6244789;22;20004;-95
2021/06/11 16:44:39;;;;;;;6.78;5.60;;;;;;;;;;6244320;23;20082;-94
2021/06/11 16:47:05;;;;;;;5.97;5.18;;;;;;;;;;6243587;23;20099;-95
2021/06/11 16:49:30;;;;;;;6.22;5.55;;;;;;;;;;6245204;23;20004;-95
2021/06/11 16:51:56;;;;;;;6.45;5.32;;;;;;;;;;6245012;23;20015;-95
2021/06/11 16:54:21;;;;;;;6.45;5.70;;;;;;;;;;6244406;23;20012;-96
2021/06/11 16:56:47;;;;;;;6.82;5.80;;;;;;;;;;6244973;23;20000;-95
2021/06/11 16:59:12;;;;;;;10.15;5.53;;;;;;;;;;6245161;23;20488;-96
2021/06/11 17:01:38;;;;;;;9.48;6.13;;;;;;;;;;6244013;23;20003;-95
2021/06/11 17:04:03;;;;;;;6.47;5.75;;;;;;;;;;6244619;23;20011;-96
2021/06/11 17:06:32;;;;;;;5.88;5.38;;;;;;;;;;6243829;23;20005;-94
2021/06/11 17:08:58;;;;;;;9.90;5.78;;;;;;;;;;6244768;23;19996;-93
2021/06/11 17:11:23;;;;;;;8.10;5.63;;;;;;;;;;6245387;23;20082;-94
2021/06/11 17:13:49;;;;;;;6.50;5.88;;;;;;;;;;6244846;23;19996;-94
2021/06/11 17:16:17;;;;;;;7.88;6.03;;;;;;;;;;6244652;23;20414;-95
2021/06/11 17:18:43;;;;;;;7.35;6.20;;;;;;;;;;6237477;23;20000;-94
2021/06/11 17:21:10;;;;;;;11.98;6.20;;;;;;;;;;6243853;23;20007;-95
2021/06/11 17:23:36;;;;;;;6.95;5.53;;;;;;;;;;6244588;23;20086;-94
2021/06/11 17:26:03;;;;;;;6.57;5.57;;;;;;;;;;6243891;23;20000;-94
2021/06/11 17:28:35;;;;;;;6.00;5.50;;;;;;;;;;6244926;23;19996;-94
2021/06/11 17:31:18;;;;;;;6.82;6.13;;;;;;;;;;6243986;23;20062;-93
2021/06/11 17:33:51;;;;;;;6.30;5.50;;;;;;;;;;6244901;23;20087;-93
2021/06/11 17:36:28;;;;;;;11.25;6.18;;;;;;;;;;6244767;23;20377;-94
2021/06/11 17:39:01;;;;;;;7.22;6.10;;;;;;;;;;6239282;23;20004;-94
2021/06/11 17:41:34;;;;;;;9.65;5.43;;;;;;;;;;6246012;22;20042;-94
2021/06/11 17:44:13;;;;;;;6.80;5.43;;;;;;;;;;6245782;23;20000;-93
2021/06/11 17:46:39;;;;;;;10.82;5.63;;;;;;;;;;6244962;23;20488;-92
2021/06/11 17:49:07;;;;;;;6.65;5.13;;;;;;;;;;6242427;23;20004;-91
2021/06/11 17:51:33;;;;;;;6.40;5.72;;;;;;;;;;6242945;23;20004;-93
2021/06/11 17:54:07;;;;;;;9.38;5.60;;;;;;;;;;6245209;23;20011;-94
2021/06/11 17:56:49;;;;;;;7.88;5.78;;;;;;;;;;6246500;23;20004;-94
2021/06/11 17:59:15;;;;;;;7.15;5.40;;;;;;;;;;6248369;23;20000;-93
2021/06/11 18:01:42;;;;;;;7.78;6.13;;;;;;;;;;6246792;23;20058;-94
2021/06/11 18:04:08;;;;;;;9.35;6.20;;;;;;;;;;6246951;23;20036;-94
2021/06/11 18:06:34;;;;;;;7.32;5.40;;;;;;;;;;6246178;23;20004;-94
2021/06/11 18:09:10;;;;;;;6.75;5.50;;;;;;;;;;6247356;23;20339;-95
2021/06/11 18:11:36;;;;;;;5.95;5.20;;;;;;;;;;6247632;23;20011;-95
2021/06/11 18:14:01;;;;;;;7.28;5.47;;;;;;;;;;6248858;23;20008;-96
2021/06/11 18:16:39;;;;;;;7.07;5.80;;;;;;;;;;6248086;23;20093;-96
2021/06/11 18:19:10;;;;;;;6.35;5.60;;;;;;;;;;6252261;23;20000;-95
2021/06/11 18:22:11;;;;;;;8.43;5.80;;;;;;;;;;6253366;23;20006;-96
2021/06/11 18:24:41;;;;;;;6.72;5.80;;;;;;;;;;6255853;23;20000;-95
2021/06/11 18:27:10;;;;;;;6.07;5.47;;;;;;;;;;6250155;23;20091;-95
2021/06/11 18:29:58;;;;;;;7.70;5.65;;;;;;;;;;6249502;23;20007;-96
2021/06/11 18:32:29;;;;;;;6.53;5.85;;;;;;;;;;6247230;23;20434;-96
2021/06/11 18:35:09;;;;;;;8.77;5.78;;;;;;;;;;6251699;23;20059;-95
2021/06/11 18:37:35;;;;;;;12.93;6.10;;;;;;;;;;6248055;23;20042;-96
2021/06/11 18:40:22;;;;;;;11.02;6.00;;;;;;;;;;6248414;23;20000;-93
2021/06/11 18:43:12;;;;;;;7.88;6.00;;;;;;;;;;6247601;22;20425;-95
2021/06/11 18:46:18;;;;;;;8.10;6.10;;;;;;;;;;6247212;23;20055;-96
2021/06/11 18:49:07;;;;;;;8.48;5.57;;;;;;;;;;6242957;22;20095;-95
2021/06/11 18:51:37;;;;;;;5.97;5.38;;;;;;;;;;6246951;23;19996;-96
2021/06/11 18:54:15;;;;;;;10.20;6.03;;;;;;;;;;6251308;23;19996;-96
2021/06/11 18:56:47;;;;;;;7.22;6.18;;;;;;;;;;6216756;23;20381;-92
2021/06/11 18:59:24;;;;;;;7.35;6.03;;;;;;;;;;6212157;23;20007;-91
2021/06/11 19:01:58;;;;;;;7.13;6.28;;;;;;;;;;6212567;23;20007;-91
2021/06/11 19:04:26;;;;;;;7.45;5.90;;;;;;;;;;6212351;23;20004;-91
2021/06/11 19:07:04;;;;;;;8.45;5.72;;;;;;;;;;6214089;23;20001;-92
2021/06/11 19:09:56;;;;;;;10.07;6.45;;;;;;;;;;6212534;23;20005;-92
2021/06/11 19:12:22;;;;;;;9.88;6.97;;;;;;;;;;6212571;23;20416;-91
2021/06/11 19:14:54;;;;;;;7.65;6.13;;;;;;;;;;6212633;23;20308;-92
2021/06/11 19:17:29;;;;;;;7.28;6.60;;;;;;;;;;6212939;23;20330;-91
2021/06/11 19:19:56;;;;;;;8.57;6.55;;;;;;;;;;6214658;23;20008;-92
2021/06/11 19:22:31;;;;;;;9.35;6.90;;;;;;;;;;6213468;23;20028;-91
2021/06/11 19:25:08;;;;;;;13.43;7.32;;;;;;;;;;6212919;23;20000;-91
2021/06/11 19:27:36;;;;;;;9.05;6.75;;;;;;;;;;6211693;23;20001;-92
2021/06/11 19:30:13;;;;;;;8.43;6.60;;;;;;;;;;6211894;23;20385;-92
2021/06/11 19:33:26;;;;;;;12.02;6.60;;;;;;;;;;6213449;23;20066;-91
2021/06/11 19:35:55;;;;;;;8.13;6.50;;;;;;;;;;6119218;23;20357;-91
2021/06/11 19:38:36;;;;;;;9.00;5.68;;;;;;;;;;6096448;23;20096;-91
2021/06/11 19:41:20;;;;;;;10.93;6.70;;;;;;;;;;6097533;23;20006;-92
2021/06/11 19:43:48;;;;;;;7.10;5.90;;;;;;;;;;6121808;23;20379;-91
2021/06/11 19:46:23;;;;;;;7.88;5.75;;;;;;;;;;6096977;23;20075;-91
2021/06/11 19:48:49;;;;;;;7.75;5.38;;;;;;;;;;6122430;23;20329;-92
2021/06/11 19:51:18;;;;;;;8.50;5.35;;;;;;;;;;6096981;23;20053;-92
2021/06/11 19:53:47;;;;;;;8.60;5.88;;;;;;;;;;6122537;23;20010;-86
2021/06/11 19:56:21;;;;;;;64.68;7.78;;;;;;;;;;6122590;23;19998;-92
2021/06/11 19:58:50;;;;;;;7.05;5.10;;;;;;;;;;6114895;23;20006;-91
2021/06/11 20:01:20;;;;;;;6.90;5.18;;;;;;;;;;6096301;23;20006;-92
2021/06/11 20:03:55;;;;;;;12.02;5.28;;;;;;;;;;6121021;23;20376;-90
2021/06/11 20:06:23;;;;;;;6.57;5.15;;;;;;;;;;6097121;23;20503;-91
2021/06/11 20:08:51;;;;;;;10.65;5.20;;;;;;;;;;6130577;23;20017;-91
2021/06/11 20:11:17;;;;;;;5.82;5.18;;;;;;;;;;6211909;23;20000;-90
2021/06/11 20:13:45;;;;;;;6.13;5.53;;;;;;;;;;6210338;23;20051;-89
2021/06/11 20:16:11;;;;;;;7.95;5.18;;;;;;;;;;6210740;23;20001;-89
2021/06/11 20:18:38;;;;;;;5.68;4.80;;;;;;;;;;6210534;23;20066;-92
2021/06/11 20:21:46;;;;;;;6.20;4.72;;;;;;;;;;6211336;23;20036;-91
2021/06/11 20:24:57;;;;;;;5.80;4.80;;;;;;;;;;6212341;23;20004;-90
2021/06/11 20:27:46;;;;;;;;;;;;;;;;;;6094160;23;20065;-91
2021/06/11 20:30:12;;;;;;;5.55;4.88;;;;;;;;;;6122269;23;20638;-93
2021/06/11 20:32:38;;;;;;;5.20;4.70;;;;;;;;;;6098056;23;20547;-94
2021/06/11 20:35:06;;;;;;;5.63;4.63;;;;;;;;;;6122527;23;20002;-93
2021/06/11 20:37:34;;;;;;;19.40;6.32;;;;;;;;;;6099140;23;20008;-92
2021/06/11 20:40:02;;;;;;;5.32;4.65;;;;;;;;;;6122871;23;20077;-95
2021/06/11 20:42:28;;;;;;;6.60;5.20;;;;;;;;;;6097465;23;20006;-93
2021/06/11 20:44:53;;;;;;;7.07;4.75;;;;;;;;;;6122571;23;20029;-95
2021/06/11 20:47:19;;;;;;;7.45;5.20;;;;;;;;;;6097684;23;20022;-94
2021/06/11 20:49:45;;;;;;;6.88;5.72;;;;;;;;;;6095246;23;20002;-95
2021/06/11 20:52:11;;;;;;;7.75;5.10;;;;;;;;;;6121383;23;20077;-94
2021/06/11 20:54:36;;;;;;;6.65;5.18;;;;;;;;;;6097405;23;20021;-95
2021/06/11 20:57:02;;;;;;;5.97;4.90;;;;;;;;;;6101326;23;20045;-94
2021/06/11 20:59:29;;;;;;;5.78;5.15;;;;;;;;;;6211295;23;20342;-93
2021/06/11 21:01:55;;;;;;;10.35;5.03;;;;;;;;;;6212776;23;20500;-95
2021/06/11 21:04:21;;;;;;;6.53;5.00;;;;;;;;;;6211467;23;20084;-94
2021/06/11 21:06:46;;;;;;;7.03;4.78;;;;;;;;;;6212157;23;20040;-92
2021/06/11 21:09:12;;;;;;;8.60;4.97;;;;;;;;;;6213064;23;20000;-93
2021/06/11 21:11:37;;;;;;;7.25;4.80;;;;;;;;;;6211247;23;20005;-92
2021/06/11 21:14:03;;;;;;;5.88;4.95;;;;;;;;;;6212769;23;20074;-92
2021/06/11 21:16:28;;;;;;;7.30;4.40;;;;;;;;;;6212167;23;20003;-93
2021/06/11 21:18:54;;;;;;;12.50;4.90;;;;;;;;;;6211779;23;20004;-91
2021/06/11 21:21:19;;;;;;;6.25;4.72;;;;;;;;;;6212330;23;20004;-91
2021/06/11 21:23:45;;;;;;;9.25;4.70;;;;;;;;;;6212651;23;20004;-91
2021/06/11 21:26:11;;;;;;;5.70;4.72;;;;;;;;;;6211693;23;20055;-91
2021/06/11 21:28:37;;;;;;;8.10;4.78;;;;;;;;;;6210573;23;20406;-93
2021/06/11 21:31:03;;;;;;;6.78;4.63;;;;;;;;;;6211328;23;20012;-92
2021/06/11 21:33:30;;;;;;;6.80;4.53;;;;;;;;;;6214982;23;20001;-92
2021/06/11 21:39:22;;;;;;;7.57;4.38;;;;;;;;;;6205551;23;20011;-90
2021/06/11 21:41:57;;;;;;;4.90;4.50;;;;;;;;;;6214983;23;20008;-91
2021/06/11 21:44:26;;;;;;;6.30;4.40;;;;;;;;;;6215088;23;20342;-90
2021/06/11 21:46:53;;;;;;;5.63;4.30;;;;;;;;;;6214658;23;20020;-91
2021/06/11 21:49:20;;;;;;;4.70;4.20;;;;;;;;;;6215096;23;20000;-90
2021/06/11 21:51:48;;;;;;;5.40;4.63;;;;;;;;;;6217169;23;20107;-91
2021/06/11 21:54:15;;;;;;;8.05;4.43;;;;;;;;;;6215065;23;20343;-90
2021/06/11 21:56:42;;;;;;;5.13;4.63;;;;;;;;;;6215177;23;19997;-91
2021/06/11 21:59:08;;;;;;;7.88;4.68;;;;;;;;;;6214443;23;20004;-91
2021/06/11 22:01:34;;;;;;;5.82;4.70;;;;;;;;;;6214616;23;19997;-90
2021/06/11 22:04:02;;;;;;;6.47;4.43;;;;;;;;;;6214586;23;20331;-90
2021/06/11 22:06:28;;;;;;;4.70;4.18;;;;;;;;;;6214540;23;20043;-91
2021/06/11 22:08:54;;;;;;;5.15;4.60;;;;;;;;;;6214847;23;20028;-91
2021/06/11 22:11:19;;;;;;;7.65;4.50;;;;;;;;;;6215082;23;20348;-91
2021/06/11 22:13:45;;;;;;;8.25;4.82;;;;;;;;;;6216571;23;20071;-91
2021/06/11 22:16:11;;;;;;;4.55;4.10;;;;;;;;;;6215065;23;20024;-91
2021/06/11 22:18:37;;;;;;;8.65;4.88;;;;;;;;;;6214783;23;20397;-90
2021/06/11 22:21:04;;;;;;;8.15;4.70;;;;;;;;;;6215000;23;20019;-90
2021/06/11 22:23:29;;;;;;;6.57;5.18;;;;;;;;;;6214899;23;20000;-90
2021/06/11 22:25:55;;;;;;;6.72;4.82;;;;;;;;;;6216753;23;20000;-90
2021/06/11 22:28:21;;;;;;;6.05;4.75;;;;;;;;;;6214746;23;20123;-90
2021/06/11 22:30:58;;;;;;;5.40;4.53;;;;;;;;;;6216677;23;20012;-90
2021/06/11 22:33:25;;;;;;;7.15;4.95;;;;;;;;;;6216646;23;20004;-90
2021/06/11 22:35:51;;;;;;;7.65;4.68;;;;;;;;;;6216489;23;20076;-90
2021/06/11 22:38:20;;;;;;;6.95;4.88;;;;;;;;;;6214797;23;20001;-90
2021/06/11 22:40:49;;;;;;;5.32;4.82;;;;;;;;;;6214263;23;20445;-90
2021/06/11 22:43:17;;;;;;;7.10;4.97;;;;;;;;;;6216339;23;19996;-89
2021/06/11 22:45:43;;;;;;;7.03;4.00;;;;;;;;;;6214603;23;20013;-90
2021/06/11 22:48:09;;;;;;;8.05;4.55;;;;;;;;;;6214662;23;20007;-91
2021/06/11 22:50:37;;;;;;;7.72;4.95;;;;;;;;;;6214648;23;20055;-92
2021/06/11 22:53:03;;;;;;;7.78;5.45;;;;;;;;;;6216241;23;20046;-91
2021/06/11 22:55:28;;;;;;;8.07;5.40;;;;;;;;;;6214595;23;20381;-92
2021/06/11 22:57:56;;;;;;;7.35;5.50;;;;;;;;;;6214738;23;20000;-91
2021/06/11 23:00:38;;;;;;;8.10;6.28;;;;;;;;;;6214601;23;20011;-91
2021/06/11 23:03:06;;;;;;;7.80;6.00;;;;;;;;;;6214806;23;19997;-91
2021/06/11 23:05:31;;;;;;;9.57;7.03;;;;;;;;;;6214507;23;20059;-91
2021/06/11 23:07:57;;;;;;;10.65;6.18;;;;;;;;;;6216335;23;20005;-91
2021/06/11 23:10:23;;;;;;;7.90;6.70;;;;;;;;;;6214982;23;20001;-89
2021/06/11 23:12:48;;;;;;;6.90;6.20;;;;;;;;;;6214530;23;20001;-90
2021/06/11 23:15:14;;;;;;;7.65;6.95;;;;;;;;;;6240156;23;20028;-90
2021/06/11 23:17:41;;;;;;;7.43;6.75;;;;;;;;;;6216459;23;20470;-89
2021/06/11 23:20:10;;;;;;;10.00;6.85;;;;;;;;;;6216493;23;20000;-90
2021/06/11 23:22:36;;;;;;;11.07;7.13;;;;;;;;;;6214919;23;20409;-88
2021/06/11 23:25:03;;;;;;;9.88;6.78;;;;;;;;;;6214980;23;20007;-89
2021/06/11 23:27:29;;;;;;;9.35;6.38;;;;;;;;;;6214800;23;20028;-89
2021/06/11 23:29:54;;;;;;;9.38;7.10;;;;;;;;;;6214938;23;20009;-89
2021/06/11 23:32:21;;;;;;;8.18;7.35;;;;;;;;;;6216593;23;20046;-88
2021/06/11 23:34:47;;;;;;;7.97;7.00;;;;;;;;;;6214839;23;19996;-88
2021/06/11 23:37:12;;;;;;;8.30;6.80;;;;;;;;;;6214916;23;20008;-88
2021/06/11 23:39:38;;;;;;;7.68;6.88;;;;;;;;;;6214784;23;20001;-89
2021/06/11 23:42:04;;;;;;;8.48;6.78;;;;;;;;;;6240035;22;20008;-88
2021/06/11 23:44:29;;;;;;;9.52;6.60;;;;;;;;;;6214778;23;20000;-88
2021/06/11 23:46:55;;;;;;;14.38;7.75;;;;;;;;;;6214370;23;20012;-87
2021/06/11 23:49:20;;;;;;;10.82;6.72;;;;;;;;;;6214799;23;20000;-87
2021/06/11 23:51:46;;;;;;;11.75;7.38;;;;;;;;;;6214670;23;20008;-87
2021/06/11 23:54:11;;;;;;;9.02;6.50;;;;;;;;;;6214723;23;20427;-87
2021/06/11 23:56:37;;;;;;;12.00;6.80;;;;;;;;;;6217952;23;20074;-87
